Weather at Sokol Airport

Public forecast

Using degrees Celsius for public forecast. Weather courtesy of forecast.io.

Current aviation weather report (METAR) for Sokol Airport

Retrieved 2021/07/23 22:30 UTC (9 minutes ago):

UHMM 232230Z 18001MPS 9999 OVC012 14/11 Q1010 R10/12//65 NOSIG RMK MT OBSC QFE743 R28/00000MPS

Aviation forecast (TAF) for Sokol Airport

Retrieved 2021/07/23 21:21 UTC (1 hour ago):

TAF UHMM 231955Z 2321/2503 08003MPS 9999 SCT011 OVC020 FM240000 23003MPS 9999 BKN035CB FM241200 VRB01MPS 2000 BR BKN007 TEMPO 2412/2423 0300 FG VV003 FM250000 23003MPS 9999 SCT040